Time;durP1;ratioP1;P1;durP2;ratioP2;P2;SDS_P1;SDS_P2;PMS_P1;PMS_P2;Temp;Humidity;BMP_temperature;BMP_pressure;BME280_temperature;BME280_humidity;BME280_pressure;Samples;Min_cycle;Max_cycle;Signal;HPM_P1;HPM_P2
2022/12/01 00:00:11;;;;;;;24.20;23.00;;;;;;;11.37;80.82;100212.97;5070316;28;20048;-66
2022/12/01 00:02:38;;;;;;;18.40;17.50;;;;;;;11.46;81.50;100222.38;5066166;28;20051;-66
2022/12/01 00:05:05;;;;;;;18.13;17.23;;;;;;;11.42;81.71;100224.13;5062553;28;20192;-66
2022/12/01 00:07:32;;;;;;;18.50;17.50;;;;;;;11.30;81.99;100201.28;5070419;28;20049;-66
2022/12/01 00:12:44;;;;;;;18.77;17.87;;;;;;;11.31;82.15;100212.16;5062750;28;20055;-66
2022/12/01 00:15:11;;;;;;;17.80;16.90;;;;;;;11.19;80.52;100210.91;5068580;28;20041;-66
2022/12/01 00:17:38;;;;;;;19.33;18.43;;;;;;;11.14;80.70;100215.41;5067164;28;20411;-65
2022/12/01 00:20:06;;;;;;;18.37;17.37;;;;;;;11.15;81.11;100222.66;5069945;28;20536;-66
2022/12/01 00:22:32;;;;;;;17.90;17.07;;;;;;;11.12;81.39;100223.25;5072147;28;20600;-65
2022/12/01 00:24:59;;;;;;;18.80;17.80;;;;;;;10.99;80.92;100201.56;5068173;28;20059;-66
2022/12/01 00:27:26;;;;;;;17.80;16.97;;;;;;;10.95;81.04;100194.91;5064886;28;20049;-65
2022/12/01 00:29:53;;;;;;;18.60;17.67;;;;;;;10.98;81.42;100202.69;5068674;28;20055;-66
2022/12/01 00:32:19;;;;;;;18.50;17.50;;;;;;;11.07;81.16;100214.91;5065706;28;20049;-66
2022/12/01 00:34:46;;;;;;;18.23;17.33;;;;;;;11.05;80.94;100210.75;5066370;28;20672;-65
2022/12/01 00:37:13;;;;;;;18.60;17.67;;;;;;;11.01;81.10;100204.91;5054995;28;20052;-66
2022/12/01 00:39:40;;;;;;;20.30;19.30;;;;;;;11.01;81.65;100202.13;5064268;28;20049;-68
2022/12/01 00:42:07;;;;;;;18.00;17.10;;;;;;;10.96;81.56;100185.38;5070329;28;20048;-66
2022/12/01 00:44:39;;;;;;;26.87;25.47;;;;;;;10.91;81.79;100177.06;5065678;28;20040;-66
2022/12/01 00:47:06;;;;;;;17.80;16.97;;;;;;;10.93;81.97;100182.34;5041533;28;20049;-65
2022/12/01 00:49:32;;;;;;;17.40;16.60;;;;;;;10.89;81.23;100190.47;5055916;28;20055;-65
2022/12/01 00:51:59;;;;;;;18.63;17.70;;;;;;;10.86;81.60;100196.63;5032602;28;20048;-65
2022/12/01 00:54:26;;;;;;;17.63;16.83;;;;;;;10.85;81.79;100200.56;5050736;28;20052;-65
2022/12/01 00:56:53;;;;;;;17.63;16.30;;;;;;;10.71;82.08;100175.25;5049950;28;20067;-65
2022/12/01 00:59:19;;;;;;;31.07;29.70;;;;;;;10.74;82.42;100176.63;5064279;28;20510;-65
2022/12/01 01:01:46;;;;;;;16.10;15.30;;;;;;;10.80;81.99;100187.47;5069723;28;20048;-66
2022/12/01 01:04:13;;;;;;;16.23;15.43;;;;;;;10.86;82.45;100191.03;5066335;28;20052;-66
2022/12/01 01:06:42;;;;;;;16.67;15.87;;;;;;;10.88;82.07;100195.22;5069218;28;20052;-65
2022/12/01 01:09:10;;;;;;;22.80;21.80;;;;;;;10.89;82.07;100173.72;5055760;28;20048;-65
2022/12/01 01:11:37;;;;;;;16.70;15.90;;;;;;;10.89;82.33;100168.13;5059876;28;20074;-66
2022/12/01 01:14:04;;;;;;;27.83;26.60;;;;;;;10.92;81.71;100167.53;5066628;28;20049;-66
2022/12/01 01:16:31;;;;;;;15.50;14.80;;;;;;;10.90;81.55;100176.19;5069064;28;20048;-67
2022/12/01 01:18:59;;;;;;;16.50;15.70;;;;;;;10.96;81.80;100192.94;5062903;28;20048;-67
2022/12/01 01:21:26;;;;;;;16.53;15.73;;;;;;;10.79;82.20;100162.63;5066764;28;20059;-68
2022/12/01 01:23:54;;;;;;;16.90;16.10;;;;;;;10.95;82.26;100180.94;5066303;28;20052;-68
2022/12/01 01:26:24;;;;;;;17.27;16.30;;;;;;;10.98;83.07;100185.94;5069399;28;20057;-68
2022/12/01 01:28:52;;;;;;;16.95;16.15;;;;;;;11.00;83.39;100192.03;5067242;28;20060;-68
2022/12/01 01:31:22;;;;;;;29.80;28.33;;;;;;;11.05;83.17;100193.97;5066152;28;20079;-68
2022/12/01 01:33:49;;;;;;;17.42;16.48;;;;;;;11.04;83.54;100190.34;5065028;28;20407;-69
2022/12/01 01:36:17;;;;;;;17.70;16.80;;;;;;;10.96;83.15;100157.44;5067667;28;20086;-69
2022/12/01 01:38:45;;;;;;;17.50;16.50;;;;;;;10.82;83.19;100140.53;5068326;28;20045;-69
2022/12/01 01:41:12;;;;;;;17.00;16.17;;;;;;;10.72;83.21;100148.97;5049518;28;20049;-69
2022/12/01 01:43:50;;;;;;;16.73;15.93;;;;;;;10.67;83.14;100152.66;5066536;28;20044;-68
2022/12/01 01:46:19;;;;;;;16.80;16.00;;;;;;;10.72;83.58;100150.94;5062565;28;20051;-66
2022/12/01 01:48:56;;;;;;;23.10;21.97;;;;;;;10.66;82.70;100156.56;5066978;28;20048;-65
2022/12/01 01:51:32;;;;;;;17.00;16.10;;;;;;;10.66;82.85;100148.19;5059155;28;20048;-68
2022/12/01 01:54:03;;;;;;;16.90;16.10;;;;;;;10.68;82.91;100157.09;5064822;28;20052;-68
2022/12/01 01:56:31;;;;;;;17.40;16.50;;;;;;;10.61;82.83;100137.06;5048242;28;20040;-69
2022/12/01 01:58:58;;;;;;;17.80;16.80;;;;;;;10.74;83.53;100143.13;5065612;28;20041;-68
2022/12/01 02:01:25;;;;;;;17.33;16.23;;;;;;;10.71;83.19;100132.53;5046895;28;20052;-65
2022/12/01 02:03:53;;;;;;;17.50;16.50;;;;;;;10.77;83.12;100146.16;5065218;28;20079;-65
2022/12/01 02:06:22;;;;;;;26.97;25.70;;;;;;;10.74;82.62;100143.94;5063529;28;20048;-65
2022/12/01 02:08:49;;;;;;;16.93;16.03;;;;;;;10.77;81.71;100151.75;5038295;28;20053;-65
2022/12/01 02:11:48;;;;;;;16.40;15.60;;;;;;;10.68;80.42;100157.09;5067000;28;20059;-67
2022/12/01 02:14:39;;;;;;;18.07;17.07;;;;;;;10.73;80.76;100163.78;5064812;28;20491;-65
2022/12/01 02:17:33;;;;;;;17.17;16.17;;;;;;;10.74;81.33;100160.72;5062165;28;20060;-65
2022/12/01 02:20:40;;;;;;;17.80;16.80;;;;;;;10.68;81.77;100145.09;5048801;28;20113;-66
2022/12/01 02:23:24;;;;;;;17.30;16.30;;;;;;;10.76;82.10;100150.06;5068999;28;20057;-67
2022/12/01 02:26:10;;;;;;;16.43;15.63;;;;;;;10.81;82.25;100154.78;5061966;28;20045;-68
2022/12/01 02:29:06;;;;;;;17.93;16.90;;;;;;;10.82;82.20;100157.28;5050842;28;20056;-69
2022/12/01 02:31:50;;;;;;;29.93;28.63;;;;;;;10.73;82.19;100147.84;5042942;28;20052;-69
2022/12/01 02:34:26;;;;;;;17.53;16.63;;;;;;;10.72;82.32;100150.94;5064086;28;20056;-68
2022/12/01 02:37:27;;;;;;;17.70;16.70;;;;;;;10.65;82.92;100149.31;5047712;28;20052;-71
2022/12/01 02:40:12;;;;;;;;;;;;;;;10.41;84.73;100156.75;5060900;28;20049;-71
2022/12/01 02:42:58;;;;;;;17.20;16.30;;;;;;;10.54;83.71;100156.09;5059253;28;20383;-70
2022/12/01 02:45:39;;;;;;;17.50;16.60;;;;;;;10.57;83.42;100158.31;5060594;28;20518;-70
2022/12/01 02:48:16;;;;;;;17.30;16.30;;;;;;;10.51;83.28;100159.47;5064484;28;20052;-70
2022/12/01 02:50:45;;;;;;;18.17;17.27;;;;;;;10.50;83.38;100157.81;5064760;28;20051;-66
2022/12/01 02:53:17;;;;;;;17.73;16.80;;;;;;;10.41;83.50;100153.97;5045661;28;20091;-66
2022/12/01 02:55:53;;;;;;;17.03;16.17;;;;;;;10.41;83.50;100151.16;5068635;28;20055;-66
2022/12/01 02:58:20;;;;;;;17.13;16.20;;;;;;;10.39;83.61;100156.19;5069991;28;20048;-66
2022/12/01 03:01:23;;;;;;;17.87;16.87;;;;;;;10.34;84.03;100151.50;5071826;28;20052;-66
2022/12/01 03:04:21;;;;;;;17.40;16.40;;;;;;;10.27;84.21;100159.34;5070791;28;20485;-69
2022/12/01 03:07:01;;;;;;;17.13;16.10;;;;;;;10.33;84.18;100149.00;5067278;28;20502;-69
2022/12/01 03:09:49;;;;;;;17.90;17.00;;;;;;;10.25;83.32;100146.78;5069282;28;20379;-69
2022/12/01 03:12:23;;;;;;;17.80;16.77;;;;;;;10.30;82.79;100147.63;5070832;28;20048;-68
2022/12/01 03:15:08;;;;;;;16.90;16.10;;;;;;;10.26;81.92;100143.75;5069041;28;20049;-69
2022/12/01 03:17:55;;;;;;;17.20;16.30;;;;;;;10.29;82.20;100134.78;5063761;28;20059;-70
2022/12/01 03:20:33;;;;;;;17.03;16.23;;;;;;;10.38;82.05;100123.81;5065469;28;20055;-67
2022/12/01 03:23:09;;;;;;;16.80;16.00;;;;;;;10.40;81.64;100141.13;5068945;28;20056;-66
2022/12/01 03:25:41;;;;;;;17.10;16.20;;;;;;;10.40;82.03;100138.34;5067623;28;20044;-68
2022/12/01 03:28:10;;;;;;;17.03;16.10;;;;;;;10.44;81.84;100145.00;5067728;28;20048;-67
2022/12/01 03:30:58;;;;;;;17.30;16.30;;;;;;;10.35;81.50;100141.16;5071169;28;20063;-69
2022/12/01 03:33:31;;;;;;;16.13;15.33;;;;;;;10.37;81.31;100155.66;5052714;28;20055;-68
2022/12/01 03:36:04;;;;;;;15.90;15.10;;;;;;;10.32;81.28;100161.25;5070160;28;20036;-66
2022/12/01 03:38:35;;;;;;;17.73;16.73;;;;;;;10.29;80.86;100153.47;5054466;28;20475;-67
2022/12/01 03:41:26;;;;;;;16.57;15.70;;;;;;;10.09;80.46;100132.09;5063277;28;20048;-67
2022/12/01 03:44:02;;;;;;;16.90;16.10;;;;;;;10.25;80.56;100152.34;5070755;28;20045;-67
2022/12/01 03:46:43;;;;;;;16.93;16.10;;;;;;;10.22;80.56;100142.59;5067843;28;20044;-67
2022/12/01 03:49:11;;;;;;;16.90;16.10;;;;;;;10.16;80.36;100139.00;5054025;28;20053;-66
2022/12/01 03:52:10;;;;;;;16.73;15.93;;;;;;;10.10;79.87;100130.97;5069879;28;20044;-66
2022/12/01 03:54:46;;;;;;;17.00;16.10;;;;;;;10.05;80.38;100131.84;5051195;28;20045;-67
2022/12/01 03:57:19;;;;;;;16.63;15.73;;;;;;;10.03;80.44;100125.69;5069670;28;20395;-68
2022/12/01 03:59:47;;;;;;;17.00;16.20;;;;;;;10.05;80.41;100129.03;5066570;28;20408;-67
2022/12/01 04:02:15;;;;;;;16.63;15.83;;;;;;;10.00;80.30;100126.25;5069696;28;20048;-67
2022/12/01 04:04:42;;;;;;;16.57;15.67;;;;;;;9.97;79.91;100129.63;5071437;28;20072;-66
2022/12/01 04:07:13;;;;;;;16.60;15.80;;;;;;;9.99;80.19;100132.16;5073350;28;20045;-66
2022/12/01 04:09:40;;;;;;;16.80;16.00;;;;;;;9.95;80.02;100124.34;5068008;28;20056;-67
2022/12/01 04:12:31;;;;;;;16.53;15.73;;;;;;;9.83;79.91;100118.25;5068049;28;20057;-67
2022/12/01 04:15:00;;;;;;;16.53;15.70;;;;;;;9.82;80.15;100115.78;5072111;28;20052;-67
2022/12/01 04:17:27;;;;;;;16.67;15.77;;;;;;;9.82;79.66;100122.19;5065551;28;20056;-68
2022/12/01 04:19:54;;;;;;;17.17;16.17;;;;;;;9.83;79.41;100111.84;5062336;28;20052;-68
2022/12/01 04:22:22;;;;;;;16.60;15.70;;;;;;;9.96;78.85;100112.06;5048448;28;20060;-67
2022/12/01 04:24:48;;;;;;;16.07;15.27;;;;;;;10.00;78.58;100106.75;5071060;28;20052;-66
2022/12/01 04:27:15;;;;;;;26.43;25.23;;;;;;;9.94;77.93;100082.78;5049713;28;20045;-65
2022/12/01 04:29:42;;;;;;;15.90;15.20;;;;;;;10.04;77.75;100099.44;5070223;28;20048;-66
2022/12/01 04:32:09;;;;;;;16.43;15.43;;;;;;;10.18;77.42;100096.84;5063495;28;20098;-66
2022/12/01 04:34:36;;;;;;;16.50;15.70;;;;;;;10.25;76.61;100097.38;5071130;28;20047;-67
2022/12/01 04:37:04;;;;;;;17.40;16.60;;;;;;;10.15;75.32;100089.91;5072194;28;20483;-67
2022/12/01 04:39:32;;;;;;;16.30;15.40;;;;;;;10.31;75.24;100096.25;5068337;28;20119;-67
2022/12/01 04:41:59;;;;;;;16.80;15.90;;;;;;;10.31;73.39;100101.81;5067866;28;20049;-68
2022/12/01 04:44:27;;;;;;;17.40;16.50;;;;;;;10.26;72.50;100085.13;5068213;28;20053;-68
2022/12/01 04:47:00;;;;;;;16.00;15.30;;;;;;;10.36;72.72;100089.81;5063972;28;20040;-66
2022/12/01 04:49:27;;;;;;;17.17;16.37;;;;;;;10.40;72.78;100086.13;5068620;28;20117;-68
2022/12/01 04:51:54;;;;;;;17.17;16.37;;;;;;;10.38;71.87;100084.75;5044992;28;20045;-68
2022/12/01 04:54:21;;;;;;;17.30;16.40;;;;;;;10.40;71.63;100077.75;5062474;28;20048;-66
2022/12/01 04:56:48;;;;;;;17.23;16.27;;;;;;;10.33;70.82;100070.84;5067470;28;20045;-67
2022/12/01 04:59:15;;;;;;;17.67;16.70;;;;;;;10.43;71.10;100070.78;5069044;28;20059;-65
2022/12/01 05:01:42;;;;;;;18.10;17.30;;;;;;;10.48;70.92;100084.69;5062724;28;20052;-65
2022/12/01 05:04:13;;;;;;;17.90;17.00;;;;;;;10.45;69.17;100068.50;5068687;28;20491;-65
2022/12/01 05:06:39;;;;;;;32.03;30.53;;;;;;;10.37;68.22;100072.75;5062105;28;20040;-65
2022/12/01 05:09:07;;;;;;;17.57;16.67;;;;;;;10.47;67.92;100071.84;5066946;28;20052;-66
2022/12/01 05:11:38;;;;;;;18.60;17.70;;;;;;;10.58;66.95;100067.84;5042456;28;20402;-66
2022/12/01 05:14:05;;;;;;;17.87;16.97;;;;;;;10.73;66.68;100080.81;5070672;28;20173;-66
2022/12/01 05:16:33;;;;;;;17.67;16.77;;;;;;;10.74;66.19;100062.13;5069323;28;20059;-66
2022/12/01 05:21:49;;;;;;;17.50;16.60;;;;;;;10.86;65.34;100084.91;5061808;28;20052;-67
2022/12/01 05:24:17;;;;;;;18.40;17.40;;;;;;;10.92;65.10;100089.31;5068164;28;20499;-67
2022/12/01 05:26:44;;;;;;;17.50;16.60;;;;;;;10.84;64.82;100070.41;5066598;28;20040;-67
2022/12/01 05:29:12;;;;;;;18.53;17.53;;;;;;;10.90;65.15;100088.75;5066280;28;20066;-67
2022/12/01 05:31:39;;;;;;;19.23;18.33;;;;;;;11.03;65.33;100101.22;5066423;28;20055;-66
2022/12/01 05:34:07;;;;;;;17.60;16.70;;;;;;;10.94;65.61;100083.41;5066913;28;20078;-67
2022/12/01 05:36:33;;;;;;;18.00;17.10;;;;;;;11.03;65.99;100102.06;5065135;28;20041;-68
2022/12/01 05:39:00;;;;;;;19.43;18.30;;;;;;;11.02;65.81;100103.19;5066953;28;20044;-79
2022/12/01 05:41:27;;;;;;;17.83;16.93;;;;;;;11.01;65.78;100098.72;5062042;28;20045;-78
2022/12/01 05:43:54;;;;;;;18.87;17.87;;;;;;;11.05;66.19;100113.78;5065335;28;20048;-78
2022/12/01 05:46:21;;;;;;;18.03;17.03;;;;;;;11.05;66.53;100124.94;5047340;28;20067;-74
2022/12/01 05:48:47;;;;;;;19.23;17.73;;;;;;;11.06;66.73;100126.59;5062728;28;20519;-74
2022/12/01 05:51:16;;;;;;;19.80;18.50;;;;;;;11.04;66.91;100126.09;5062810;28;20056;-74
2022/12/01 05:53:45;;;;;;;18.57;17.37;;;;;;;11.04;67.20;100131.69;5067659;28;20049;-74
2022/12/01 05:56:12;;;;;;;19.13;18.03;;;;;;;11.01;67.51;100142.56;5063619;28;20052;-73
2022/12/01 05:58:38;;;;;;;18.40;17.47;;;;;;;10.98;67.46;100146.81;5045940;28;20055;-73
2022/12/01 06:01:06;;;;;;;18.23;17.03;;;;;;;10.89;67.94;100148.56;5062593;28;20159;-73
2022/12/01 06:03:32;;;;;;;18.87;17.83;;;;;;;10.79;67.94;100135.50;5065609;28;20052;-72
2022/12/01 06:05:59;;;;;;;17.60;16.70;;;;;;;10.78;68.19;100149.78;5065571;28;20414;-73
2022/12/01 06:08:26;;;;;;;18.50;17.50;;;;;;;10.67;68.15;100144.28;5069615;28;20045;-81
2022/12/01 06:10:53;;;;;;;18.00;17.10;;;;;;;10.66;68.48;100150.13;5064792;28;20506;-75
2022/12/01 06:13:20;;;;;;;18.10;17.20;;;;;;;10.60;68.50;100154.94;5068312;28;20040;-74
2022/12/01 06:16:02;;;;;;;18.60;17.37;;;;;;;10.47;68.65;100149.19;5063844;28;20483;-73
2022/12/01 06:18:38;;;;;;;18.67;17.53;;;;;;;10.40;68.78;100155.91;5055961;28;20060;-67
2022/12/01 06:21:05;;;;;;;18.40;17.50;;;;;;;10.45;69.22;100185.75;5060079;28;20052;-67
2022/12/01 06:23:33;;;;;;;15.13;14.33;;;;;;;10.38;69.21;100182.44;5057557;28;20044;-68
2022/12/01 06:25:59;;;;;;;14.17;13.37;;;;;;;10.29;69.42;100185.03;5066406;28;20048;-68
2022/12/01 06:28:26;;;;;;;15.17;14.30;;;;;;;10.14;69.66;100185.88;5064410;28;20064;-68
2022/12/01 06:30:53;;;;;;;14.57;13.77;;;;;;;10.13;69.88;100192.59;5060294;28;20119;-72
2022/12/01 06:33:28;;;;;;;14.53;13.73;;;;;;;10.05;69.89;100203.50;5066536;28;20044;-68
2022/12/01 06:36:02;;;;;;;15.90;15.07;;;;;;;10.04;70.03;100213.00;5066643;28;20052;-67
2022/12/01 06:38:31;;;;;;;14.83;14.13;;;;;;;9.97;70.34;100211.34;5064000;28;20488;-67
2022/12/01 06:40:58;;;;;;;14.73;14.03;;;;;;;9.95;70.36;100221.16;5061110;28;20057;-67
2022/12/01 06:43:25;;;;;;;16.17;15.33;;;;;;;9.95;70.56;100235.09;5066642;28;20547;-68
2022/12/01 06:45:52;;;;;;;18.53;17.13;;;;;;;9.76;70.61;100220.09;5062410;28;20049;-67
2022/12/01 06:48:27;;;;;;;17.20;15.80;;;;;;;9.74;71.00;100237.09;5064125;28;20052;-69
2022/12/01 06:50:58;;;;;;;16.70;15.57;;;;;;;9.68;71.10;100229.88;5061399;28;20140;-69
2022/12/01 06:53:26;;;;;;;17.07;15.97;;;;;;;9.61;71.44;100229.34;5047209;28;20076;-69
2022/12/01 06:55:53;;;;;;;16.50;15.50;;;;;;;9.61;71.41;100226.53;5069402;28;20434;-69
2022/12/01 06:58:21;;;;;;;22.47;21.17;;;;;;;9.60;71.52;100234.03;5063513;28;20155;-68
2022/12/01 07:00:48;;;;;;;15.57;14.73;;;;;;;9.54;71.60;100232.41;5067764;28;20048;-70
2022/12/01 07:03:17;;;;;;;15.50;14.60;;;;;;;9.57;71.76;100244.94;5064474;28;20569;-71
2022/12/01 07:05:54;;;;;;;14.60;13.80;;;;;;;9.49;71.61;100232.41;5068751;28;20424;-68
2022/12/01 07:08:20;;;;;;;14.50;13.63;;;;;;;9.47;71.83;100243.00;5062231;28;20048;-68
2022/12/01 07:10:56;;;;;;;15.00;14.30;;;;;;;9.43;71.86;100226.00;5061314;28;20517;-68
2022/12/01 07:13:23;;;;;;;15.50;14.60;;;;;;;9.41;71.96;100227.41;5062013;28;20499;-69
2022/12/01 07:15:58;;;;;;;15.23;14.43;;;;;;;9.35;71.81;100221.00;5051629;28;20055;-68
2022/12/01 07:18:25;;;;;;;15.03;14.23;;;;;;;9.38;72.12;100239.94;5064356;28;20471;-70
2022/12/01 07:20:52;;;;;;;16.03;15.03;;;;;;;9.36;72.24;100244.13;5065714;28;20049;-68
2022/12/01 07:23:20;;;;;;;15.90;15.10;;;;;;;9.40;72.23;100256.38;5060601;28;20845;-76
2022/12/01 07:25:46;;;;;;;15.00;14.30;;;;;;;9.44;72.05;100249.97;5059310;28;20045;-67
2022/12/01 07:28:13;;;;;;;14.93;14.20;;;;;;;9.57;71.84;100259.72;5061754;28;20406;-67
2022/12/01 07:30:40;;;;;;;16.53;15.83;;;;;;;9.60;71.91;100264.72;5066982;28;20049;-67
2022/12/01 07:33:07;;;;;;;19.63;18.67;;;;;;;9.62;71.94;100267.25;5065766;28;20123;-67
2022/12/01 07:35:34;;;;;;;16.30;15.40;;;;;;;9.61;71.83;100258.03;5066792;28;20048;-67
2022/12/01 07:38:00;;;;;;;16.63;15.83;;;;;;;9.66;71.57;100263.59;5068191;28;20100;-67
2022/12/01 07:40:27;;;;;;;16.70;15.80;;;;;;;9.72;71.51;100279.19;5070978;28;20048;-67
2022/12/01 07:42:54;;;;;;;18.80;17.77;;;;;;;9.69;71.39;100282.56;5067214;28;20059;-67
2022/12/01 07:45:21;;;;;;;17.57;16.60;;;;;;;9.65;71.71;100278.66;5071100;28;20052;-66
2022/12/01 07:47:52;;;;;;;17.33;16.40;;;;;;;9.58;71.52;100272.53;5066676;28;20056;-66
2022/12/01 07:50:19;;;;;;;17.23;16.33;;;;;;;9.64;71.53;100288.16;5063858;28;20052;-67
2022/12/01 07:52:50;;;;;;;18.97;17.97;;;;;;;9.60;71.63;100292.59;5064906;28;20128;-67
2022/12/01 07:55:16;;;;;;;27.50;26.37;;;;;;;9.70;71.36;100297.31;5068608;28;20423;-66
2022/12/01 07:57:43;;;;;;;19.23;18.23;;;;;;;9.72;71.66;100307.09;5068179;28;20047;-66
2022/12/01 08:00:11;;;;;;;18.27;17.40;;;;;;;9.80;71.74;100313.22;5064065;28;20514;-65
2022/12/01 08:02:37;;;;;;;17.77;16.90;;;;;;;10.02;71.70;100322.09;5069510;28;20044;-67
2022/12/01 08:05:05;;;;;;;17.50;16.70;;;;;;;10.21;71.52;100337.09;5069802;28;20087;-66
2022/12/01 08:07:32;;;;;;;17.33;16.20;;;;;;;10.37;71.31;100339.88;5054851;28;20036;-66
2022/12/01 08:09:58;;;;;;;19.53;18.53;;;;;;;10.37;71.19;100339.88;5067137;28;20048;-67
2022/12/01 08:12:25;;;;;;;19.43;18.33;;;;;;;10.34;71.48;100362.78;5058444;28;20069;-67
2022/12/01 08:14:52;;;;;;;17.97;17.07;;;;;;;10.24;71.78;100362.78;5077867;28;20458;-67
2022/12/01 08:17:19;;;;;;;20.43;19.10;;;;;;;10.16;72.27;100355.84;5070309;28;20048;-67
2022/12/01 08:19:46;;;;;;;19.50;18.40;;;;;;;10.26;72.47;100367.00;5069325;28;20071;-67
2022/12/01 08:22:13;;;;;;;17.70;16.60;;;;;;;10.36;72.85;100361.38;5062283;28;20441;-67
2022/12/01 08:24:39;;;;;;;16.43;15.53;;;;;;;10.44;72.71;100362.75;5063027;28;20403;-67
2022/12/01 08:27:06;;;;;;;16.77;15.87;;;;;;;10.55;72.69;100353.22;5050581;28;20056;-67
2022/12/01 08:29:34;;;;;;;17.20;16.03;;;;;;;10.81;72.69;100369.88;5069450;28;20499;-67
2022/12/01 08:32:01;;;;;;;15.90;15.10;;;;;;;11.01;72.77;100361.38;5069022;28;20510;-66
2022/12/01 08:34:28;;;;;;;16.40;15.60;;;;;;;11.36;72.52;100376.25;5067948;28;20056;-67
2022/12/01 08:36:55;;;;;;;17.00;15.90;;;;;;;11.66;72.12;100369.59;5068810;28;20055;-68
2022/12/01 08:39:21;;;;;;;31.30;29.80;;;;;;;12.01;71.39;100367.63;5058421;28;20530;-67
2022/12/01 08:41:48;;;;;;;20.80;19.67;;;;;;;12.11;71.03;100347.13;5065503;28;20044;-67
2022/12/01 08:44:15;;;;;;;19.63;18.63;;;;;;;12.56;71.00;100383.00;5062554;28;20056;-67
2022/12/01 08:46:42;;;;;;;19.02;18.02;;;;;;;12.85;70.23;100376.47;5045199;28;20154;-67
2022/12/01 08:49:09;;;;;;;19.48;18.52;;;;;;;13.22;69.85;100386.88;5061984;28;20041;-67
2022/12/01 08:51:37;;;;;;;21.83;20.35;;;;;;;13.60;69.23;100380.47;5064833;28;20426;-67
2022/12/01 08:54:04;;;;;;;19.17;18.17;;;;;;;14.14;68.72;100384.59;5061651;28;20421;-67
2022/12/01 08:56:39;;;;;;;20.10;19.10;;;;;;;14.70;67.69;100380.75;5067356;28;20053;-67
2022/12/01 08:59:07;;;;;;;19.17;18.27;;;;;;;15.35;66.61;100383.25;5061725;28;20052;-66
2022/12/01 09:01:34;;;;;;;19.92;18.73;;;;;;;15.91;65.42;100385.91;5066866;28;20048;-67
2022/12/01 09:04:06;;;;;;;19.00;17.90;;;;;;;16.32;63.68;100386.47;5067013;28;20115;-67
2022/12/01 09:06:38;;;;;;;20.73;19.63;;;;;;;16.80;62.70;100396.19;5063412;28;20499;-67
2022/12/01 09:09:12;;;;;;;19.88;18.77;;;;;;;17.25;61.60;100385.50;5064377;28;20053;-66
2022/12/01 09:11:39;;;;;;;19.73;18.67;;;;;;;17.91;60.81;100398.69;5061282;28;20063;-68
2022/12/01 09:14:06;;;;;;;20.25;19.25;;;;;;;18.57;59.53;100398.38;5067536;28;20061;-67
2022/12/01 09:16:33;;;;;;;23.58;22.33;;;;;;;19.27;58.23;100404.53;5055293;28;20071;-68
2022/12/01 09:19:00;;;;;;;21.52;20.08;;;;;;;19.92;56.82;100407.91;5083024;28;20080;-67
2022/12/01 09:21:31;;;;;;;21.70;20.60;;;;;;;20.59;54.57;100407.56;5085328;28;20486;-66
2022/12/01 09:24:00;;;;;;;20.13;19.13;;;;;;;21.14;53.20;100384.66;5094024;28;20052;-66
2022/12/01 09:26:27;;;;;;;22.10;20.90;;;;;;;21.75;51.49;100404.47;5092056;28;20051;-67
2022/12/01 09:29:00;;;;;;;22.60;21.40;;;;;;;22.21;50.61;100402.16;5081719;28;20044;-67
2022/12/01 09:31:27;;;;;;;22.77;21.20;;;;;;;22.63;49.30;100418.75;5082815;28;20525;-66
2022/12/01 09:33:59;;;;;;;32.10;30.63;;;;;;;23.01;48.21;100403.09;5087227;28;20749;-65
2022/12/01 09:36:27;;;;;;;23.15;21.60;;;;;;;23.51;46.99;100412.84;5086302;28;20048;-67
2022/12/01 09:38:54;;;;;;;28.23;26.70;;;;;;;23.85;46.17;100409.16;5086474;28;20048;-67
2022/12/01 09:41:51;;;;;;;23.27;21.98;;;;;;;24.26;45.91;100409.63;5082019;28;20131;-67
2022/12/01 09:44:43;;;;;;;20.83;19.83;;;;;;;24.67;45.59;100412.88;5086976;28;20047;-66
2022/12/01 09:47:29;;;;;;;20.88;19.67;;;;;;;24.94;43.08;100425.19;5083972;28;20052;-68
2022/12/01 09:49:59;;;;;;;22.15;20.75;;;;;;;25.25;41.93;100409.00;5092299;28;20052;-67
2022/12/01 09:52:31;;;;;;;23.83;22.17;;;;;;;25.61;41.51;100413.25;5083227;28;20056;-67
2022/12/01 09:54:59;;;;;;;30.83;29.35;;;;;;;25.85;40.03;100409.09;5087521;28;20047;-70
2022/12/01 09:57:31;;;;;;;22.42;21.08;;;;;;;25.96;39.66;100417.81;5087807;28;20150;-67
2022/12/01 10:00:01;;;;;;;21.63;20.40;;;;;;;25.82;39.23;100403.34;5084474;28;20486;-67
2022/12/01 10:02:37;;;;;;;29.70;28.25;;;;;;;25.85;38.91;100396.84;5083272;28;20044;-68
2022/12/01 10:05:11;;;;;;;22.40;21.00;;;;;;;26.01;38.26;100414.59;5080725;28;20056;-68
2022/12/01 10:07:45;;;;;;;37.75;35.92;;;;;;;26.08;37.83;100413.88;5089997;28;20568;-67
2022/12/01 10:10:16;;;;;;;33.38;31.83;;;;;;;25.83;37.13;100413.56;5081627;28;20069;-69
2022/12/01 10:12:46;;;;;;;23.15;21.73;;;;;;;25.90;36.62;100416.50;5080603;28;20044;-68
2022/12/01 10:15:22;;;;;;;21.23;20.13;;;;;;;25.97;36.29;100425.19;5084972;28;20039;-68
2022/12/01 10:18:01;;;;;;;20.67;19.67;;;;;;;25.68;35.73;100421.91;5064737;28;20049;-68
2022/12/01 10:20:43;;;;;;;20.52;19.52;;;;;;;25.36;35.34;100426.31;5059989;28;20045;-68
2022/12/01 10:23:42;;;;;;;21.15;19.77;;;;;;;24.98;36.44;100410.97;5058413;28;20053;-68
2022/12/01 10:26:17;;;;;;;27.48;26.00;;;;;;;25.27;35.45;100407.41;5044877;28;20049;-68
2022/12/01 10:29:15;;;;;;;23.90;22.60;;;;;;;25.55;35.82;100409.06;5041230;28;20044;-68
2022/12/01 10:31:47;;;;;;;40.10;38.20;;;;;;;26.03;34.97;100409.34;5032273;28;20469;-69
2022/12/01 10:34:25;;;;;;;20.73;19.65;;;;;;;26.11;33.60;100413.91;5056321;28;20048;-68
2022/12/01 10:36:53;;;;;;;21.02;19.75;;;;;;;26.06;33.90;100408.56;5058964;28;20045;-68
2022/12/01 10:39:37;;;;;;;20.90;19.80;;;;;;;25.78;33.07;100408.97;5045032;28;20075;-68
2022/12/01 10:42:23;;;;;;;22.23;21.08;;;;;;;25.08;33.06;100416.03;5057349;28;20056;-68
2022/12/01 10:44:53;;;;;;;22.58;21.20;;;;;;;24.12;31.98;100403.63;5057008;28;20053;-68
2022/12/01 10:47:23;;;;;;;22.65;21.05;;;;;;;23.02;32.21;100399.88;5055464;28;20486;-68
2022/12/01 10:49:50;;;;;;;37.55;35.38;;;;;;;23.03;32.87;100403.56;5054337;28;20056;-67
2022/12/01 10:52:32;;;;;;;33.15;31.58;;;;;;;23.55;34.18;100396.66;5051304;28;20055;-68
2022/12/01 10:55:00;;;;;;;34.70;32.78;;;;;;;23.94;33.54;100399.59;5060803;28;20051;-67
2022/12/01 10:57:29;;;;;;;26.70;25.17;;;;;;;24.44;32.71;100395.72;5064061;28;20487;-68
2022/12/01 10:59:56;;;;;;;;;;;;;;;24.38;34.27;100382.13;5056575;28;20499;-68
2022/12/01 11:02:26;;;;;;;25.13;23.33;;;;;;;24.77;32.89;100377.97;5064225;28;20287;-68
2022/12/01 11:05:23;;;;;;;22.77;21.48;;;;;;;25.31;33.39;100384.59;5064538;28;20072;-67
2022/12/01 11:07:51;;;;;;;22.00;20.60;;;;;;;25.96;32.40;100380.63;5056076;28;20049;-68
2022/12/01 11:10:30;;;;;;;21.85;20.65;;;;;;;26.14;32.64;100375.13;5064662;28;20061;-68
2022/12/01 11:13:30;;;;;;;21.08;19.98;;;;;;;26.12;31.11;100368.94;5070577;28;20048;-67
2022/12/01 11:15:59;;;;;;;21.55;20.35;;;;;;;26.04;30.92;100359.47;5069670;28;20048;-68
2022/12/01 11:18:35;;;;;;;21.83;20.63;;;;;;;25.61;30.60;100353.19;5067147;28;20429;-68
2022/12/01 11:21:12;;;;;;;21.67;20.23;;;;;;;26.43;30.99;100348.47;5061405;28;20083;-69
2022/12/01 11:23:49;;;;;;;23.02;21.42;;;;;;;27.64;30.90;100347.78;5063950;28;20582;-67
2022/12/01 11:26:29;;;;;;;20.02;19.02;;;;;;;27.89;28.60;100356.53;5055473;28;20419;-67
2022/12/01 11:29:03;;;;;;;21.40;20.30;;;;;;;26.92;29.20;100352.19;5054248;28;20487;-68
2022/12/01 11:31:45;;;;;;;20.13;19.13;;;;;;;25.06;28.04;100327.88;5068090;28;20475;-68
2022/12/01 11:34:33;;;;;;;33.78;32.28;;;;;;;23.27;29.16;100334.97;5063238;28;20600;-68
2022/12/01 11:37:03;;;;;;;20.33;19.23;;;;;;;23.04;31.15;100319.75;5062931;28;20048;-68